sensor_id;sensor_type;location;lat;lon;timestamp;P1;durP1;ratioP1;P2;durP2;ratioP2
42098;SDS011;27758;55.900;8.516;2023-02-28T00:01:06;13.60;;;5.38;;
42098;SDS011;27758;55.900;8.516;2023-02-28T00:03:32;11.27;;;5.22;;
42098;SDS011;27758;55.900;8.516;2023-02-28T00:06:00;13.55;;;5.68;;
42098;SDS011;27758;55.900;8.516;2023-02-28T00:08:29;11.40;;;6.38;;
42098;SDS011;27758;55.900;8.516;2023-02-28T00:10:55;13.23;;;5.95;;
42098;SDS011;27758;55.900;8.516;2023-02-28T00:13:21;11.77;;;5.82;;
42098;SDS011;27758;55.900;8.516;2023-02-28T00:15:47;10.65;;;5.93;;
42098;SDS011;27758;55.900;8.516;2023-02-28T00:18:12;16.60;;;7.32;;
42098;SDS011;27758;55.900;8.516;2023-02-28T00:20:38;14.52;;;5.72;;
42098;SDS011;27758;55.900;8.516;2023-02-28T00:23:04;14.82;;;5.90;;
42098;SDS011;27758;55.900;8.516;2023-02-28T00:25:30;20.73;;;8.75;;
42098;SDS011;27758;55.900;8.516;2023-02-28T00:27:55;15.93;;;6.30;;
42098;SDS011;27758;55.900;8.516;2023-02-28T00:30:22;13.30;;;6.55;;
42098;SDS011;27758;55.900;8.516;2023-02-28T00:32:48;12.18;;;5.35;;
42098;SDS011;27758;55.900;8.516;2023-02-28T00:35:15;11.90;;;5.72;;
42098;SDS011;27758;55.900;8.516;2023-02-28T00:37:41;11.10;;;6.05;;
42098;SDS011;27758;55.900;8.516;2023-02-28T00:40:07;12.25;;;5.78;;
42098;SDS011;27758;55.900;8.516;2023-02-28T00:42:34;11.30;;;5.90;;
42098;SDS011;27758;55.900;8.516;2023-02-28T00:45:00;13.63;;;5.50;;
42098;SDS011;27758;55.900;8.516;2023-02-28T00:47:26;12.15;;;6.68;;
42098;SDS011;27758;55.900;8.516;2023-02-28T00:49:52;11.02;;;6.80;;
42098;SDS011;27758;55.900;8.516;2023-02-28T00:52:18;14.73;;;5.63;;
42098;SDS011;27758;55.900;8.516;2023-02-28T00:54:44;13.70;;;5.53;;
42098;SDS011;27758;55.900;8.516;2023-02-28T00:57:09;11.57;;;5.55;;
42098;SDS011;27758;55.900;8.516;2023-02-28T00:59:35;10.50;;;5.80;;
42098;SDS011;27758;55.900;8.516;2023-02-28T01:02:01;14.75;;;7.00;;
42098;SDS011;27758;55.900;8.516;2023-02-28T01:04:26;9.80;;;5.25;;
42098;SDS011;27758;55.900;8.516;2023-02-28T01:06:52;13.73;;;5.43;;
42098;SDS011;27758;55.900;8.516;2023-02-28T01:09:18;12.95;;;5.80;;
42098;SDS011;27758;55.900;8.516;2023-02-28T01:11:43;16.27;;;6.80;;
42098;SDS011;27758;55.900;8.516;2023-02-28T01:14:13;11.43;;;5.45;;
42098;SDS011;27758;55.900;8.516;2023-02-28T01:16:40;12.32;;;5.68;;
42098;SDS011;27758;55.900;8.516;2023-02-28T01:19:07;12.93;;;5.82;;
42098;SDS011;27758;55.900;8.516;2023-02-28T01:21:32;17.58;;;6.93;;
42098;SDS011;27758;55.900;8.516;2023-02-28T01:24:00;18.08;;;7.13;;
42098;SDS011;27758;55.900;8.516;2023-02-28T01:26:26;18.48;;;7.80;;
42098;SDS011;27758;55.900;8.516;2023-02-28T01:28:52;17.65;;;8.15;;
42098;SDS011;27758;55.900;8.516;2023-02-28T01:31:19;18.52;;;7.68;;
42098;SDS011;27758;55.900;8.516;2023-02-28T01:33:46;16.70;;;7.25;;
42098;SDS011;27758;55.900;8.516;2023-02-28T01:36:16;31.45;;;9.68;;
42098;SDS011;27758;55.900;8.516;2023-02-28T01:38:44;19.67;;;9.38;;
42098;SDS011;27758;55.900;8.516;2023-02-28T01:46:11;20.85;;;10.02;;
42098;SDS011;27758;55.900;8.516;2023-02-28T01:48:49;19.40;;;9.70;;
42098;SDS011;27758;55.900;8.516;2023-02-28T01:51:30;21.27;;;9.13;;
42098;SDS011;27758;55.900;8.516;2023-02-28T01:54:05;23.27;;;9.43;;
42098;SDS011;27758;55.900;8.516;2023-02-28T01:56:38;20.15;;;9.93;;
42098;SDS011;27758;55.900;8.516;2023-02-28T01:59:12;18.80;;;9.30;;
42098;SDS011;27758;55.900;8.516;2023-02-28T02:01:43;26.30;;;10.45;;
42098;SDS011;27758;55.900;8.516;2023-02-28T02:04:09;39.75;;;13.10;;
42098;SDS011;27758;55.900;8.516;2023-02-28T02:06:40;32.38;;;13.50;;
42098;SDS011;27758;55.900;8.516;2023-02-28T02:09:08;31.30;;;13.15;;
42098;SDS011;27758;55.900;8.516;2023-02-28T02:11:34;39.75;;;13.95;;
42098;SDS011;27758;55.900;8.516;2023-02-28T02:17:04;34.67;;;14.68;;
42098;SDS011;27758;55.900;8.516;2023-02-28T02:28:24;21.20;;;10.95;;
42098;SDS011;27758;55.900;8.516;2023-02-28T02:33:45;22.60;;;11.65;;
42098;SDS011;27758;55.900;8.516;2023-02-28T02:36:42;28.90;;;12.77;;
42098;SDS011;27758;55.900;8.516;2023-02-28T02:42:16;25.92;;;12.70;;
42098;SDS011;27758;55.900;8.516;2023-02-28T02:44:52;25.30;;;12.38;;
42098;SDS011;27758;55.900;8.516;2023-02-28T02:47:26;25.70;;;12.90;;
42098;SDS011;27758;55.900;8.516;2023-02-28T02:49:56;25.17;;;12.18;;
42098;SDS011;27758;55.900;8.516;2023-02-28T02:52:28;20.90;;;12.10;;
42098;SDS011;27758;55.900;8.516;2023-02-28T02:55:00;22.70;;;11.73;;
42098;SDS011;27758;55.900;8.516;2023-02-28T02:57:35;19.42;;;10.10;;
42098;SDS011;27758;55.900;8.516;2023-02-28T03:00:10;21.30;;;10.32;;
42098;SDS011;27758;55.900;8.516;2023-02-28T03:02:37;15.68;;;9.20;;
42098;SDS011;27758;55.900;8.516;2023-02-28T03:05:06;20.77;;;11.48;;
42098;SDS011;27758;55.900;8.516;2023-02-28T03:07:39;19.05;;;10.55;;
42098;SDS011;27758;55.900;8.516;2023-02-28T03:10:25;20.58;;;10.68;;
42098;SDS011;27758;55.900;8.516;2023-02-28T03:13:19;22.30;;;10.90;;
42098;SDS011;27758;55.900;8.516;2023-02-28T03:15:52;16.52;;;9.68;;
42098;SDS011;27758;55.900;8.516;2023-02-28T03:21:32;19.15;;;9.20;;
42098;SDS011;27758;55.900;8.516;2023-02-28T03:24:08;16.73;;;10.20;;
42098;SDS011;27758;55.900;8.516;2023-02-28T03:26:41;16.98;;;10.32;;
42098;SDS011;27758;55.900;8.516;2023-02-28T03:31:54;17.77;;;9.20;;
42098;SDS011;27758;55.900;8.516;2023-02-28T03:34:36;16.88;;;9.07;;
42098;SDS011;27758;55.900;8.516;2023-02-28T03:37:09;16.88;;;9.38;;
42098;SDS011;27758;55.900;8.516;2023-02-28T03:39:40;17.65;;;8.68;;
42098;SDS011;27758;55.900;8.516;2023-02-28T03:42:14;21.50;;;10.10;;
42098;SDS011;27758;55.900;8.516;2023-02-28T03:44:47;15.65;;;9.20;;
42098;SDS011;27758;55.900;8.516;2023-02-28T03:47:29;21.10;;;10.88;;
42098;SDS011;27758;55.900;8.516;2023-02-28T03:52:35;18.88;;;9.75;;
42098;SDS011;27758;55.900;8.516;2023-02-28T03:55:08;24.05;;;10.48;;
42098;SDS011;27758;55.900;8.516;2023-02-28T03:57:41;22.58;;;11.15;;
42098;SDS011;27758;55.900;8.516;2023-02-28T04:00:17;22.02;;;10.80;;
42098;SDS011;27758;55.900;8.516;2023-02-28T04:02:46;23.50;;;12.30;;
42098;SDS011;27758;55.900;8.516;2023-02-28T04:05:17;26.98;;;11.05;;
42098;SDS011;27758;55.900;8.516;2023-02-28T04:07:45;21.42;;;11.05;;
42098;SDS011;27758;55.900;8.516;2023-02-28T04:10:11;25.60;;;10.60;;
42098;SDS011;27758;55.900;8.516;2023-02-28T04:12:37;18.45;;;10.10;;
42098;SDS011;27758;55.900;8.516;2023-02-28T04:15:03;21.95;;;10.90;;
42098;SDS011;27758;55.900;8.516;2023-02-28T04:17:30;17.73;;;9.98;;
42098;SDS011;27758;55.900;8.516;2023-02-28T04:19:56;20.52;;;10.38;;
42098;SDS011;27758;55.900;8.516;2023-02-28T04:22:22;19.65;;;10.40;;
42098;SDS011;27758;55.900;8.516;2023-02-28T04:24:51;21.10;;;10.48;;
42098;SDS011;27758;55.900;8.516;2023-02-28T04:27:18;19.35;;;10.07;;
42098;SDS011;27758;55.900;8.516;2023-02-28T04:29:45;20.20;;;10.57;;
42098;SDS011;27758;55.900;8.516;2023-02-28T04:32:10;19.88;;;10.50;;
42098;SDS011;27758;55.900;8.516;2023-02-28T04:34:36;19.38;;;9.63;;
42098;SDS011;27758;55.900;8.516;2023-02-28T04:37:02;18.42;;;10.48;;
42098;SDS011;27758;55.900;8.516;2023-02-28T04:39:29;19.05;;;10.07;;
42098;SDS011;27758;55.900;8.516;2023-02-28T04:41:54;22.35;;;10.15;;
42098;SDS011;27758;55.900;8.516;2023-02-28T04:44:21;20.83;;;10.88;;
42098;SDS011;27758;55.900;8.516;2023-02-28T04:46:47;19.50;;;9.82;;
42098;SDS011;27758;55.900;8.516;2023-02-28T04:49:14;18.25;;;9.20;;
42098;SDS011;27758;55.900;8.516;2023-02-28T04:51:40;21.85;;;10.27;;
42098;SDS011;27758;55.900;8.516;2023-02-28T04:54:06;20.50;;;10.40;;
42098;SDS011;27758;55.900;8.516;2023-02-28T04:56:33;20.23;;;10.30;;
42098;SDS011;27758;55.900;8.516;2023-02-28T04:58:59;19.67;;;9.48;;
42098;SDS011;27758;55.900;8.516;2023-02-28T05:01:28;21.63;;;10.18;;
42098;SDS011;27758;55.900;8.516;2023-02-28T05:03:58;19.35;;;10.00;;
42098;SDS011;27758;55.900;8.516;2023-02-28T05:06:25;17.20;;;9.38;;
42098;SDS011;27758;55.900;8.516;2023-02-28T05:08:52;20.33;;;9.88;;
42098;SDS011;27758;55.900;8.516;2023-02-28T05:11:31;17.75;;;9.52;;
42098;SDS011;27758;55.900;8.516;2023-02-28T05:14:02;17.13;;;8.88;;
42098;SDS011;27758;55.900;8.516;2023-02-28T05:16:30;19.42;;;11.60;;
42098;SDS011;27758;55.900;8.516;2023-02-28T05:18:56;18.95;;;11.30;;
42098;SDS011;27758;55.900;8.516;2023-02-28T05:21:32;18.65;;;10.35;;
42098;SDS011;27758;55.900;8.516;2023-02-28T05:23:59;16.13;;;8.73;;
42098;SDS011;27758;55.900;8.516;2023-02-28T05:26:26;20.70;;;10.32;;
42098;SDS011;27758;55.900;8.516;2023-02-28T05:28:53;18.63;;;9.05;;
42098;SDS011;27758;55.900;8.516;2023-02-28T05:31:19;18.85;;;10.02;;
42098;SDS011;27758;55.900;8.516;2023-02-28T05:33:45;16.90;;;9.15;;
42098;SDS011;27758;55.900;8.516;2023-02-28T05:36:13;18.60;;;9.70;;
42098;SDS011;27758;55.900;8.516;2023-02-28T05:38:39;21.45;;;9.88;;
42098;SDS011;27758;55.900;8.516;2023-02-28T05:41:07;18.08;;;9.13;;
42098;SDS011;27758;55.900;8.516;2023-02-28T05:43:34;17.73;;;8.57;;
42098;SDS011;27758;55.900;8.516;2023-02-28T05:46:05;16.02;;;9.40;;
42098;SDS011;27758;55.900;8.516;2023-02-28T05:51:01;16.83;;;8.07;;
42098;SDS011;27758;55.900;8.516;2023-02-28T05:53:27;17.25;;;9.23;;
42098;SDS011;27758;55.900;8.516;2023-02-28T05:55:54;17.23;;;10.20;;
42098;SDS011;27758;55.900;8.516;2023-02-28T05:58:20;18.52;;;10.43;;
42098;SDS011;27758;55.900;8.516;2023-02-28T06:00:46;17.30;;;9.65;;
42098;SDS011;27758;55.900;8.516;2023-02-28T06:03:12;21.30;;;10.90;;
42098;SDS011;27758;55.900;8.516;2023-02-28T06:05:37;17.20;;;9.02;;
42098;SDS011;27758;55.900;8.516;2023-02-28T06:08:03;16.85;;;8.90;;
42098;SDS011;27758;55.900;8.516;2023-02-28T06:10:32;15.93;;;9.13;;
42098;SDS011;27758;55.900;8.516;2023-02-28T06:13:01;17.33;;;10.52;;
42098;SDS011;27758;55.900;8.516;2023-02-28T06:15:27;15.85;;;9.27;;
42098;SDS011;27758;55.900;8.516;2023-02-28T06:17:53;17.67;;;9.57;;
42098;SDS011;27758;55.900;8.516;2023-02-28T06:20:21;18.75;;;10.13;;
42098;SDS011;27758;55.900;8.516;2023-02-28T06:22:47;17.45;;;9.35;;
42098;SDS011;27758;55.900;8.516;2023-02-28T06:25:15;18.95;;;9.95;;
42098;SDS011;27758;55.900;8.516;2023-02-28T06:27:41;20.13;;;11.43;;
42098;SDS011;27758;55.900;8.516;2023-02-28T06:30:07;21.33;;;9.93;;
42098;SDS011;27758;55.900;8.516;2023-02-28T06:32:33;18.73;;;10.25;;
42098;SDS011;27758;55.900;8.516;2023-02-28T06:34:58;15.55;;;9.45;;
42098;SDS011;27758;55.900;8.516;2023-02-28T06:37:24;17.77;;;10.10;;
42098;SDS011;27758;55.900;8.516;2023-02-28T06:39:51;20.88;;;10.15;;
42098;SDS011;27758;55.900;8.516;2023-02-28T06:42:17;17.73;;;9.45;;
42098;SDS011;27758;55.900;8.516;2023-02-28T06:44:43;18.00;;;9.07;;
42098;SDS011;27758;55.900;8.516;2023-02-28T06:47:08;21.30;;;10.60;;
42098;SDS011;27758;55.900;8.516;2023-02-28T06:49:34;18.42;;;9.77;;
42098;SDS011;27758;55.900;8.516;2023-02-28T06:52:01;18.88;;;10.00;;
42098;SDS011;27758;55.900;8.516;2023-02-28T06:54:27;20.58;;;10.73;;
42098;SDS011;27758;55.900;8.516;2023-02-28T06:56:52;18.92;;;10.10;;
42098;SDS011;27758;55.900;8.516;2023-02-28T06:59:19;16.63;;;9.48;;
42098;SDS011;27758;55.900;8.516;2023-02-28T07:01:45;18.08;;;9.85;;
42098;SDS011;27758;55.900;8.516;2023-02-28T07:04:11;21.48;;;11.00;;
42098;SDS011;27758;55.900;8.516;2023-02-28T07:06:38;18.67;;;10.95;;
42098;SDS011;27758;55.900;8.516;2023-02-28T07:09:04;19.65;;;10.32;;
42098;SDS011;27758;55.900;8.516;2023-02-28T07:11:30;21.42;;;11.00;;
42098;SDS011;27758;55.900;8.516;2023-02-28T07:13:56;20.25;;;9.95;;
42098;SDS011;27758;55.900;8.516;2023-02-28T07:16:23;21.48;;;10.73;;
42098;SDS011;27758;55.900;8.516;2023-02-28T07:18:49;22.90;;;11.15;;
42098;SDS011;27758;55.900;8.516;2023-02-28T07:21:18;20.13;;;11.88;;
42098;SDS011;27758;55.900;8.516;2023-02-28T07:23:43;26.00;;;12.43;;
42098;SDS011;27758;55.900;8.516;2023-02-28T07:26:13;19.60;;;10.63;;
42098;SDS011;27758;55.900;8.516;2023-02-28T07:28:44;19.55;;;9.48;;
42098;SDS011;27758;55.900;8.516;2023-02-28T07:31:12;14.68;;;8.95;;
42098;SDS011;27758;55.900;8.516;2023-02-28T07:33:41;15.80;;;9.03;;
42098;SDS011;27758;55.900;8.516;2023-02-28T07:36:11;15.50;;;7.47;;
42098;SDS011;27758;55.900;8.516;2023-02-28T07:38:40;17.15;;;8.57;;
42098;SDS011;27758;55.900;8.516;2023-02-28T07:41:07;13.07;;;6.78;;
42098;SDS011;27758;55.900;8.516;2023-02-28T07:43:33;12.50;;;7.03;;
42098;SDS011;27758;55.900;8.516;2023-02-28T07:46:09;12.43;;;7.60;;
42098;SDS011;27758;55.900;8.516;2023-02-28T07:48:36;14.13;;;7.93;;
42098;SDS011;27758;55.900;8.516;2023-02-28T07:51:02;11.55;;;7.30;;
42098;SDS011;27758;55.900;8.516;2023-02-28T07:53:28;10.95;;;7.32;;
42098;SDS011;27758;55.900;8.516;2023-02-28T07:55:58;12.25;;;7.68;;
42098;SDS011;27758;55.900;8.516;2023-02-28T07:58:26;14.77;;;8.30;;
42098;SDS011;27758;55.900;8.516;2023-02-28T08:00:52;15.52;;;8.70;;
42098;SDS011;27758;55.900;8.516;2023-02-28T08:03:19;13.05;;;8.80;;
42098;SDS011;27758;55.900;8.516;2023-02-28T08:05:46;19.55;;;9.73;;
42098;SDS011;27758;55.900;8.516;2023-02-28T08:08:12;17.33;;;9.48;;
42098;SDS011;27758;55.900;8.516;2023-02-28T08:10:39;15.50;;;9.40;;
42098;SDS011;27758;55.900;8.516;2023-02-28T08:13:05;13.00;;;8.27;;
42098;SDS011;27758;55.900;8.516;2023-02-28T08:15:31;14.00;;;8.77;;
42098;SDS011;27758;55.900;8.516;2023-02-28T08:17:57;13.90;;;9.27;;
42098;SDS011;27758;55.900;8.516;2023-02-28T08:20:23;16.50;;;9.18;;
42098;SDS011;27758;55.900;8.516;2023-02-28T08:22:50;19.23;;;10.32;;
42098;SDS011;27758;55.900;8.516;2023-02-28T08:25:16;17.77;;;10.90;;
42098;SDS011;27758;55.900;8.516;2023-02-28T08:27:42;19.30;;;11.52;;
42098;SDS011;27758;55.900;8.516;2023-02-28T08:30:10;17.13;;;10.93;;
42098;SDS011;27758;55.900;8.516;2023-02-28T08:32:36;19.05;;;10.95;;
42098;SDS011;27758;55.900;8.516;2023-02-28T08:35:02;15.85;;;10.68;;
42098;SDS011;27758;55.900;8.516;2023-02-28T08:37:29;18.98;;;9.98;;
42098;SDS011;27758;55.900;8.516;2023-02-28T08:39:54;21.13;;;11.23;;
42098;SDS011;27758;55.900;8.516;2023-02-28T08:42:20;14.27;;;10.10;;
42098;SDS011;27758;55.900;8.516;2023-02-28T08:44:45;17.00;;;11.25;;
42098;SDS011;27758;55.900;8.516;2023-02-28T08:47:11;15.25;;;10.13;;
42098;SDS011;27758;55.900;8.516;2023-02-28T08:49:37;14.82;;;10.30;;
42098;SDS011;27758;55.900;8.516;2023-02-28T08:52:03;16.55;;;9.48;;
42098;SDS011;27758;55.900;8.516;2023-02-28T08:54:29;16.00;;;10.40;;
42098;SDS011;27758;55.900;8.516;2023-02-28T08:56:56;13.48;;;8.82;;
42098;SDS011;27758;55.900;8.516;2023-02-28T08:59:22;15.05;;;9.00;;
42098;SDS011;27758;55.900;8.516;2023-02-28T09:01:48;11.63;;;7.65;;
42098;SDS011;27758;55.900;8.516;2023-02-28T09:04:13;13.20;;;8.20;;
42098;SDS011;27758;55.900;8.516;2023-02-28T09:06:39;10.60;;;7.47;;
42098;SDS011;27758;55.900;8.516;2023-02-28T09:09:05;10.60;;;6.57;;
42098;SDS011;27758;55.900;8.516;2023-02-28T09:11:32;11.05;;;7.43;;
42098;SDS011;27758;55.900;8.516;2023-02-28T09:13:59;11.98;;;7.32;;
42098;SDS011;27758;55.900;8.516;2023-02-28T09:16:25;9.57;;;6.80;;
42098;SDS011;27758;55.900;8.516;2023-02-28T09:18:51;8.85;;;5.78;;
42098;SDS011;27758;55.900;8.516;2023-02-28T09:21:17;8.43;;;5.25;;
42098;SDS011;27758;55.900;8.516;2023-02-28T09:23:44;7.88;;;5.40;;
42098;SDS011;27758;55.900;8.516;2023-02-28T09:26:19;8.77;;;6.03;;
42098;SDS011;27758;55.900;8.516;2023-02-28T09:28:48;13.38;;;6.65;;
42098;SDS011;27758;55.900;8.516;2023-02-28T09:31:15;11.98;;;7.18;;
42098;SDS011;27758;55.900;8.516;2023-02-28T09:33:45;9.50;;;6.65;;
42098;SDS011;27758;55.900;8.516;2023-02-28T09:36:11;8.60;;;5.68;;
42098;SDS011;27758;55.900;8.516;2023-02-28T09:38:37;9.60;;;6.45;;
42098;SDS011;27758;55.900;8.516;2023-02-28T09:41:08;15.38;;;6.55;;
42098;SDS011;27758;55.900;8.516;2023-02-28T09:43:38;10.63;;;6.78;;
42098;SDS011;27758;55.900;8.516;2023-02-28T09:49:04;10.30;;;7.55;;
42098;SDS011;27758;55.900;8.516;2023-02-28T09:54:13;9.10;;;6.90;;
42098;SDS011;27758;55.900;8.516;2023-02-28T09:56:51;10.10;;;7.10;;
42098;SDS011;27758;55.900;8.516;2023-02-28T09:59:29;10.57;;;7.97;;
42098;SDS011;27758;55.900;8.516;2023-02-28T10:04:53;9.50;;;7.30;;
42098;SDS011;27758;55.900;8.516;2023-02-28T10:10:20;11.18;;;8.77;;
42098;SDS011;27758;55.900;8.516;2023-02-28T10:12:51;10.80;;;8.07;;
42098;SDS011;27758;55.900;8.516;2023-02-28T10:15:21;8.98;;;7.32;;
42098;SDS011;27758;55.900;8.516;2023-02-28T10:17:50;10.40;;;7.25;;
42098;SDS011;27758;55.900;8.516;2023-02-28T10:20:20;7.50;;;6.30;;
42098;SDS011;27758;55.900;8.516;2023-02-28T10:25:41;8.68;;;6.38;;
42098;SDS011;27758;55.900;8.516;2023-02-28T10:28:16;6.88;;;4.93;;
42098;SDS011;27758;55.900;8.516;2023-02-28T10:30:49;7.60;;;5.28;;
42098;SDS011;27758;55.900;8.516;2023-02-28T10:35:50;7.25;;;4.15;;
42098;SDS011;27758;55.900;8.516;2023-02-28T10:38:21;4.45;;;2.97;;
42098;SDS011;27758;55.900;8.516;2023-02-28T10:41:16;3.15;;;2.65;;
42098;SDS011;27758;55.900;8.516;2023-02-28T10:46:36;4.28;;;2.90;;
42098;SDS011;27758;55.900;8.516;2023-02-28T10:49:06;3.28;;;2.30;;
42098;SDS011;27758;55.900;8.516;2023-02-28T10:51:39;2.60;;;1.98;;
42098;SDS011;27758;55.900;8.516;2023-02-28T10:54:13;2.65;;;1.90;;
42098;SDS011;27758;55.900;8.516;2023-02-28T10:57:16;1.65;;;1.25;;
42098;SDS011;27758;55.900;8.516;2023-02-28T10:59:45;2.17;;;1.30;;
42098;SDS011;27758;55.900;8.516;2023-02-28T11:02:31;2.20;;;1.30;;
42098;SDS011;27758;55.900;8.516;2023-02-28T11:04:58;1.85;;;1.10;;
42098;SDS011;27758;55.900;8.516;2023-02-28T11:07:25;1.05;;;0.80;;
42098;SDS011;27758;55.900;8.516;2023-02-28T11:09:53;2.10;;;1.50;;
42098;SDS011;27758;55.900;8.516;2023-02-28T11:12:37;1.30;;;1.17;;
42098;SDS011;27758;55.900;8.516;2023-02-28T11:15:25;1.60;;;1.23;;
42098;SDS011;27758;55.900;8.516;2023-02-28T11:18:02;1.63;;;1.25;;
42098;SDS011;27758;55.900;8.516;2023-02-28T11:20:32;2.28;;;1.10;;
42098;SDS011;27758;55.900;8.516;2023-02-28T11:22:59;3.28;;;1.52;;
42098;SDS011;27758;55.900;8.516;2023-02-28T11:25:32;2.15;;;1.48;;
42098;SDS011;27758;55.900;8.516;2023-02-28T11:28:03;2.00;;;1.20;;
42098;SDS011;27758;55.900;8.516;2023-02-28T11:32:57;2.50;;;1.13;;
42098;SDS011;27758;55.900;8.516;2023-02-28T11:35:33;2.78;;;1.45;;
42098;SDS011;27758;55.900;8.516;2023-02-28T11:43:22;1.45;;;1.20;;
42098;SDS011;27758;55.900;8.516;2023-02-28T11:46:06;1.65;;;1.33;;
42098;SDS011;27758;55.900;8.516;2023-02-28T11:48:42;1.17;;;1.08;;
42098;SDS011;27758;55.900;8.516;2023-02-28T11:51:12;1.42;;;1.20;;
42098;SDS011;27758;55.900;8.516;2023-02-28T12:04:43;3.42;;;1.15;;
42098;SDS011;27758;55.900;8.516;2023-02-28T12:09:56;2.40;;;1.30;;
42098;SDS011;27758;55.900;8.516;2023-02-28T12:12:38;2.17;;;1.25;;
42098;SDS011;27758;55.900;8.516;2023-02-28T12:28:50;1.73;;;1.17;;
42098;SDS011;27758;55.900;8.516;2023-02-28T12:31:22;2.30;;;1.40;;
42098;SDS011;27758;55.900;8.516;2023-02-28T12:33:53;3.88;;;1.42;;
42098;SDS011;27758;55.900;8.516;2023-02-28T12:36:29;2.60;;;1.45;;
42098;SDS011;27758;55.900;8.516;2023-02-28T12:39:38;1.73;;;1.23;;
42098;SDS011;27758;55.900;8.516;2023-02-28T12:42:05;1.55;;;1.15;;
42098;SDS011;27758;55.900;8.516;2023-02-28T12:44:56;1.75;;;0.95;;
42098;SDS011;27758;55.900;8.516;2023-02-28T12:47:25;2.17;;;0.90;;
42098;SDS011;27758;55.900;8.516;2023-02-28T12:50:07;2.78;;;1.00;;
42098;SDS011;27758;55.900;8.516;2023-02-28T13:00:46;1.63;;;0.68;;
42098;SDS011;27758;55.900;8.516;2023-02-28T13:03:36;1.80;;;0.93;;
42098;SDS011;27758;55.900;8.516;2023-02-28T13:09:17;2.65;;;1.35;;
42098;SDS011;27758;55.900;8.516;2023-02-28T13:11:51;3.13;;;1.50;;
42098;SDS011;27758;55.900;8.516;2023-02-28T13:19:35;5.93;;;2.17;;
42098;SDS011;27758;55.900;8.516;2023-02-28T13:22:03;3.08;;;1.83;;
42098;SDS011;27758;55.900;8.516;2023-02-28T13:24:43;5.68;;;2.10;;
42098;SDS011;27758;55.900;8.516;2023-02-28T13:27:36;4.75;;;2.10;;
42098;SDS011;27758;55.900;8.516;2023-02-28T13:33:20;5.40;;;2.90;;
42098;SDS011;27758;55.900;8.516;2023-02-28T13:38:44;6.60;;;2.05;;
42098;SDS011;27758;55.900;8.516;2023-02-28T13:44:16;5.22;;;2.35;;
42098;SDS011;27758;55.900;8.516;2023-02-28T13:57:43;5.30;;;1.70;;
42098;SDS011;27758;55.900;8.516;2023-02-28T14:03:18;6.47;;;2.08;;
42098;SDS011;27758;55.900;8.516;2023-02-28T14:11:34;5.72;;;2.72;;
42098;SDS011;27758;55.900;8.516;2023-02-28T14:14:02;7.82;;;3.25;;
42098;SDS011;27758;55.900;8.516;2023-02-28T14:16:36;8.18;;;3.60;;
42098;SDS011;27758;55.900;8.516;2023-02-28T14:22:04;7.60;;;3.38;;
42098;SDS011;27758;55.900;8.516;2023-02-28T14:30:11;3.85;;;1.90;;
42098;SDS011;27758;55.900;8.516;2023-02-28T14:38:26;7.55;;;2.95;;
42098;SDS011;27758;55.900;8.516;2023-02-28T14:40:56;12.85;;;3.90;;
42098;SDS011;27758;55.900;8.516;2023-02-28T14:43:26;10.90;;;3.65;;
42098;SDS011;27758;55.900;8.516;2023-02-28T14:46:00;10.98;;;3.28;;
42098;SDS011;27758;55.900;8.516;2023-02-28T14:48:28;9.60;;;3.60;;
42098;SDS011;27758;55.900;8.516;2023-02-28T14:50:55;7.88;;;3.70;;
42098;SDS011;27758;55.900;8.516;2023-02-28T14:53:24;8.48;;;3.83;;
42098;SDS011;27758;55.900;8.516;2023-02-28T14:58:29;13.27;;;5.03;;
42098;SDS011;27758;55.900;8.516;2023-02-28T15:00:57;10.90;;;4.45;;
42098;SDS011;27758;55.900;8.516;2023-02-28T15:05:59;11.63;;;3.10;;
42098;SDS011;27758;55.900;8.516;2023-02-28T15:08:27;8.68;;;2.60;;
42098;SDS011;27758;55.900;8.516;2023-02-28T15:10:58;10.82;;;3.35;;
42098;SDS011;27758;55.900;8.516;2023-02-28T15:13:43;6.28;;;1.73;;
42098;SDS011;27758;55.900;8.516;2023-02-28T15:16:12;8.13;;;2.53;;
42098;SDS011;27758;55.900;8.516;2023-02-28T15:21:18;5.90;;;1.50;;
42098;SDS011;27758;55.900;8.516;2023-02-28T15:26:25;8.85;;;1.85;;
42098;SDS011;27758;55.900;8.516;2023-02-28T15:28:57;7.30;;;1.75;;
42098;SDS011;27758;55.900;8.516;2023-02-28T15:31:32;3.65;;;1.23;;
42098;SDS011;27758;55.900;8.516;2023-02-28T15:34:06;7.25;;;1.60;;
42098;SDS011;27758;55.900;8.516;2023-02-28T15:36:41;10.55;;;3.05;;
42098;SDS011;27758;55.900;8.516;2023-02-28T15:42:27;8.27;;;2.38;;
42098;SDS011;27758;55.900;8.516;2023-02-28T15:44:54;6.50;;;2.30;;
42098;SDS011;27758;55.900;8.516;2023-02-28T15:47:21;10.45;;;1.90;;
42098;SDS011;27758;55.900;8.516;2023-02-28T15:49:49;8.15;;;1.75;;
42098;SDS011;27758;55.900;8.516;2023-02-28T15:52:22;8.05;;;1.88;;
42098;SDS011;27758;55.900;8.516;2023-02-28T15:55:34;8.05;;;1.55;;
42098;SDS011;27758;55.900;8.516;2023-02-28T15:57:55;9.70;;;1.70;;
42098;SDS011;27758;55.900;8.516;2023-02-28T16:00:26;10.13;;;1.88;;
42098;SDS011;27758;55.900;8.516;2023-02-28T16:02:57;9.25;;;1.45;;
42098;SDS011;27758;55.900;8.516;2023-02-28T16:05:27;13.77;;;2.90;;
42098;SDS011;27758;55.900;8.516;2023-02-28T16:07:59;10.30;;;3.20;;
42098;SDS011;27758;55.900;8.516;2023-02-28T16:10:27;10.85;;;3.30;;
42098;SDS011;27758;55.900;8.516;2023-02-28T16:12:54;7.78;;;2.40;;
42098;SDS011;27758;55.900;8.516;2023-02-28T16:17:49;7.32;;;1.75;;
42098;SDS011;27758;55.900;8.516;2023-02-28T16:20:26;9.18;;;2.22;;
42098;SDS011;27758;55.900;8.516;2023-02-28T16:22:53;8.77;;;2.78;;
42098;SDS011;27758;55.900;8.516;2023-02-28T16:25:23;4.22;;;1.00;;
42098;SDS011;27758;55.900;8.516;2023-02-28T16:27:58;6.82;;;1.55;;
42098;SDS011;27758;55.900;8.516;2023-02-28T16:30:26;5.35;;;1.15;;
42098;SDS011;27758;55.900;8.516;2023-02-28T16:32:56;10.85;;;2.03;;
42098;SDS011;27758;55.900;8.516;2023-02-28T16:35:22;7.65;;;2.08;;
42098;SDS011;27758;55.900;8.516;2023-02-28T16:37:50;7.90;;;1.83;;
42098;SDS011;27758;55.900;8.516;2023-02-28T16:40:17;6.88;;;1.40;;
42098;SDS011;27758;55.900;8.516;2023-02-28T16:42:49;7.07;;;1.83;;
42098;SDS011;27758;55.900;8.516;2023-02-28T16:45:24;12.18;;;1.95;;
42098;SDS011;27758;55.900;8.516;2023-02-28T16:47:51;7.00;;;2.78;;
42098;SDS011;27758;55.900;8.516;2023-02-28T16:50:18;5.80;;;1.88;;
42098;SDS011;27758;55.900;8.516;2023-02-28T16:52:46;6.03;;;1.60;;
42098;SDS011;27758;55.900;8.516;2023-02-28T16:55:13;4.20;;;1.50;;
42098;SDS011;27758;55.900;8.516;2023-02-28T16:57:39;10.27;;;2.30;;
42098;SDS011;27758;55.900;8.516;2023-02-28T17:00:05;8.85;;;1.77;;
42098;SDS011;27758;55.900;8.516;2023-02-28T17:02:33;7.70;;;2.17;;
42098;SDS011;27758;55.900;8.516;2023-02-28T17:04:59;6.75;;;2.33;;
42098;SDS011;27758;55.900;8.516;2023-02-28T17:07:25;5.38;;;1.98;;
42098;SDS011;27758;55.900;8.516;2023-02-28T17:09:51;4.78;;;2.15;;
42098;SDS011;27758;55.900;8.516;2023-02-28T17:12:17;8.82;;;3.17;;
42098;SDS011;27758;55.900;8.516;2023-02-28T17:14:42;9.90;;;3.38;;
42098;SDS011;27758;55.900;8.516;2023-02-28T17:17:10;6.72;;;2.30;;
42098;SDS011;27758;55.900;8.516;2023-02-28T17:19:42;11.40;;;3.25;;
42098;SDS011;27758;55.900;8.516;2023-02-28T17:22:09;9.82;;;3.60;;
42098;SDS011;27758;55.900;8.516;2023-02-28T17:24:35;7.60;;;2.58;;
42098;SDS011;27758;55.900;8.516;2023-02-28T17:27:01;6.88;;;2.83;;
42098;SDS011;27758;55.900;8.516;2023-02-28T17:29:26;11.85;;;3.38;;
42098;SDS011;27758;55.900;8.516;2023-02-28T17:31:52;5.65;;;2.80;;
42098;SDS011;27758;55.900;8.516;2023-02-28T17:34:18;7.25;;;3.05;;